sensor_id;sensor_type;location;lat;lon;timestamp;P1;durP1;ratioP1;P2;durP2;ratioP2
32633;SDS011;19043;51.012;5.648;2022-12-18T00:00:39;43.28;;;27.25;;
32633;SDS011;19043;51.012;5.648;2022-12-18T00:03:04;43.80;;;26.05;;
32633;SDS011;19043;51.012;5.648;2022-12-18T00:05:30;40.80;;;24.92;;
32633;SDS011;19043;51.012;5.648;2022-12-18T00:07:55;46.40;;;25.05;;
32633;SDS011;19043;51.012;5.648;2022-12-18T00:10:20;38.92;;;24.77;;
32633;SDS011;19043;51.012;5.648;2022-12-18T00:12:45;53.33;;;27.10;;
32633;SDS011;19043;51.012;5.648;2022-12-18T00:15:11;47.50;;;26.98;;
32633;SDS011;19043;51.012;5.648;2022-12-18T00:17:36;45.80;;;25.75;;
32633;SDS011;19043;51.012;5.648;2022-12-18T00:20:01;46.05;;;25.73;;
32633;SDS011;19043;51.012;5.648;2022-12-18T00:22:26;46.80;;;26.00;;
32633;SDS011;19043;51.012;5.648;2022-12-18T00:24:52;45.90;;;25.15;;
32633;SDS011;19043;51.012;5.648;2022-12-18T00:27:17;45.70;;;27.50;;
32633;SDS011;19043;51.012;5.648;2022-12-18T00:29:42;42.45;;;26.15;;
32633;SDS011;19043;51.012;5.648;2022-12-18T00:32:07;45.55;;;27.63;;
32633;SDS011;19043;51.012;5.648;2022-12-18T00:34:33;41.30;;;27.95;;
32633;SDS011;19043;51.012;5.648;2022-12-18T00:36:58;54.80;;;27.27;;
32633;SDS011;19043;51.012;5.648;2022-12-18T00:39:23;51.60;;;23.77;;
32633;SDS011;19043;51.012;5.648;2022-12-18T00:41:48;48.53;;;25.17;;
32633;SDS011;19043;51.012;5.648;2022-12-18T00:44:32;46.97;;;26.73;;
32633;SDS011;19043;51.012;5.648;2022-12-18T00:46:57;45.53;;;27.25;;
32633;SDS011;19043;51.012;5.648;2022-12-18T00:49:23;41.70;;;26.77;;
32633;SDS011;19043;51.012;5.648;2022-12-18T00:51:48;46.45;;;27.35;;
32633;SDS011;19043;51.012;5.648;2022-12-18T00:54:13;44.42;;;25.15;;
32633;SDS011;19043;51.012;5.648;2022-12-18T00:56:39;47.13;;;24.27;;
32633;SDS011;19043;51.012;5.648;2022-12-18T00:59:04;47.67;;;27.60;;
32633;SDS011;19043;51.012;5.648;2022-12-18T01:01:30;47.03;;;27.85;;
32633;SDS011;19043;51.012;5.648;2022-12-18T01:03:55;42.13;;;27.13;;
32633;SDS011;19043;51.012;5.648;2022-12-18T01:06:20;47.00;;;28.25;;
32633;SDS011;19043;51.012;5.648;2022-12-18T01:08:45;42.80;;;24.20;;
32633;SDS011;19043;51.012;5.648;2022-12-18T01:11:12;46.17;;;26.50;;
32633;SDS011;19043;51.012;5.648;2022-12-18T01:13:38;48.78;;;25.85;;
32633;SDS011;19043;51.012;5.648;2022-12-18T01:16:03;45.45;;;26.90;;
32633;SDS011;19043;51.012;5.648;2022-12-18T01:18:28;43.70;;;25.20;;
32633;SDS011;19043;51.012;5.648;2022-12-18T01:20:54;46.13;;;27.63;;
32633;SDS011;19043;51.012;5.648;2022-12-18T01:23:19;42.70;;;24.00;;
32633;SDS011;19043;51.012;5.648;2022-12-18T01:25:44;43.28;;;24.48;;
32633;SDS011;19043;51.012;5.648;2022-12-18T01:28:09;47.35;;;24.85;;
32633;SDS011;19043;51.012;5.648;2022-12-18T01:30:35;42.20;;;24.35;;
32633;SDS011;19043;51.012;5.648;2022-12-18T01:33:00;44.65;;;26.23;;
32633;SDS011;19043;51.012;5.648;2022-12-18T01:35:25;40.70;;;26.60;;
32633;SDS011;19043;51.012;5.648;2022-12-18T01:37:54;49.85;;;28.90;;
32633;SDS011;19043;51.012;5.648;2022-12-18T01:40:19;46.13;;;26.98;;
32633;SDS011;19043;51.012;5.648;2022-12-18T01:42:44;48.78;;;28.48;;
32633;SDS011;19043;51.012;5.648;2022-12-18T01:47:47;50.67;;;28.48;;
32633;SDS011;19043;51.012;5.648;2022-12-18T01:50:15;46.80;;;27.80;;
32633;SDS011;19043;51.012;5.648;2022-12-18T01:52:51;47.15;;;28.83;;
32633;SDS011;19043;51.012;5.648;2022-12-18T01:55:18;50.75;;;27.73;;
32633;SDS011;19043;51.012;5.648;2022-12-18T01:57:44;51.10;;;27.27;;
32633;SDS011;19043;51.012;5.648;2022-12-18T02:00:12;40.72;;;26.30;;
32633;SDS011;19043;51.012;5.648;2022-12-18T02:02:39;49.42;;;26.80;;
32633;SDS011;19043;51.012;5.648;2022-12-18T02:05:05;45.22;;;25.95;;
32633;SDS011;19043;51.012;5.648;2022-12-18T02:07:34;38.75;;;25.88;;
32633;SDS011;19043;51.012;5.648;2022-12-18T02:10:03;43.17;;;25.50;;
32633;SDS011;19043;51.012;5.648;2022-12-18T02:12:38;46.33;;;27.10;;
32633;SDS011;19043;51.012;5.648;2022-12-18T02:15:13;42.28;;;26.35;;
32633;SDS011;19043;51.012;5.648;2022-12-18T02:17:54;45.10;;;27.30;;
32633;SDS011;19043;51.012;5.648;2022-12-18T02:20:27;45.95;;;25.30;;
32633;SDS011;19043;51.012;5.648;2022-12-18T02:22:58;45.33;;;25.27;;
32633;SDS011;19043;51.012;5.648;2022-12-18T02:27:51;49.97;;;26.90;;
32633;SDS011;19043;51.012;5.648;2022-12-18T02:30:17;44.88;;;26.70;;
32633;SDS011;19043;51.012;5.648;2022-12-18T02:32:47;46.72;;;26.50;;
32633;SDS011;19043;51.012;5.648;2022-12-18T02:35:22;43.60;;;26.05;;
32633;SDS011;19043;51.012;5.648;2022-12-18T02:37:49;40.55;;;24.42;;
32633;SDS011;19043;51.012;5.648;2022-12-18T02:40:17;46.30;;;24.10;;
32633;SDS011;19043;51.012;5.648;2022-12-18T02:42:42;43.13;;;24.75;;
32633;SDS011;19043;51.012;5.648;2022-12-18T02:45:08;38.03;;;24.35;;
32633;SDS011;19043;51.012;5.648;2022-12-18T02:47:34;43.40;;;25.02;;
32633;SDS011;19043;51.012;5.648;2022-12-18T02:55:15;41.10;;;23.40;;
32633;SDS011;19043;51.012;5.648;2022-12-18T03:00:16;37.15;;;22.10;;
32633;SDS011;19043;51.012;5.648;2022-12-18T03:02:47;34.33;;;21.42;;
32633;SDS011;19043;51.012;5.648;2022-12-18T03:05:15;31.23;;;19.63;;
32633;SDS011;19043;51.012;5.648;2022-12-18T03:07:44;31.00;;;19.20;;
32633;SDS011;19043;51.012;5.648;2022-12-18T03:10:13;34.45;;;20.52;;
32633;SDS011;19043;51.012;5.648;2022-12-18T03:12:40;35.08;;;19.95;;
32633;SDS011;19043;51.012;5.648;2022-12-18T03:17:42;36.65;;;20.90;;
32633;SDS011;19043;51.012;5.648;2022-12-18T03:20:13;33.55;;;20.63;;
32633;SDS011;19043;51.012;5.648;2022-12-18T03:22:39;37.65;;;19.42;;
32633;SDS011;19043;51.012;5.648;2022-12-18T03:25:07;36.05;;;22.02;;
32633;SDS011;19043;51.012;5.648;2022-12-18T03:27:35;34.63;;;21.65;;
32633;SDS011;19043;51.012;5.648;2022-12-18T03:30:05;30.50;;;18.92;;
32633;SDS011;19043;51.012;5.648;2022-12-18T03:32:44;29.30;;;19.08;;
32633;SDS011;19043;51.012;5.648;2022-12-18T03:35:11;33.28;;;19.52;;
32633;SDS011;19043;51.012;5.648;2022-12-18T03:37:38;29.10;;;18.40;;
32633;SDS011;19043;51.012;5.648;2022-12-18T03:40:03;31.92;;;19.98;;
32633;SDS011;19043;51.012;5.648;2022-12-18T03:42:36;32.25;;;18.58;;
32633;SDS011;19043;51.012;5.648;2022-12-18T03:48:38;28.60;;;18.88;;
32633;SDS011;19043;51.012;5.648;2022-12-18T03:55:39;32.38;;;19.35;;
32633;SDS011;19043;51.012;5.648;2022-12-18T03:58:05;30.25;;;17.67;;
32633;SDS011;19043;51.012;5.648;2022-12-18T04:00:31;29.58;;;16.65;;
32633;SDS011;19043;51.012;5.648;2022-12-18T04:02:57;30.83;;;19.17;;
32633;SDS011;19043;51.012;5.648;2022-12-18T04:05:24;27.48;;;16.98;;
32633;SDS011;19043;51.012;5.648;2022-12-18T04:07:50;24.67;;;16.80;;
32633;SDS011;19043;51.012;5.648;2022-12-18T04:10:16;25.30;;;16.42;;
32633;SDS011;19043;51.012;5.648;2022-12-18T04:12:42;24.13;;;16.33;;
32633;SDS011;19043;51.012;5.648;2022-12-18T04:15:07;26.90;;;17.13;;
32633;SDS011;19043;51.012;5.648;2022-12-18T04:17:33;33.40;;;16.33;;
32633;SDS011;19043;51.012;5.648;2022-12-18T04:19:58;28.65;;;17.63;;
32633;SDS011;19043;51.012;5.648;2022-12-18T04:22:23;29.35;;;17.00;;
32633;SDS011;19043;51.012;5.648;2022-12-18T04:24:49;30.38;;;16.42;;
32633;SDS011;19043;51.012;5.648;2022-12-18T04:27:14;24.98;;;16.85;;
32633;SDS011;19043;51.012;5.648;2022-12-18T04:29:39;27.63;;;15.68;;
32633;SDS011;19043;51.012;5.648;2022-12-18T04:32:04;23.23;;;15.32;;
32633;SDS011;19043;51.012;5.648;2022-12-18T04:34:30;28.55;;;15.35;;
32633;SDS011;19043;51.012;5.648;2022-12-18T04:36:55;26.35;;;15.85;;
32633;SDS011;19043;51.012;5.648;2022-12-18T04:39:20;25.50;;;16.10;;
32633;SDS011;19043;51.012;5.648;2022-12-18T04:41:46;24.95;;;16.20;;
32633;SDS011;19043;51.012;5.648;2022-12-18T04:44:11;30.00;;;16.38;;
32633;SDS011;19043;51.012;5.648;2022-12-18T04:46:36;27.92;;;16.88;;
32633;SDS011;19043;51.012;5.648;2022-12-18T04:49:01;26.80;;;15.93;;
32633;SDS011;19043;51.012;5.648;2022-12-18T04:51:27;24.58;;;15.95;;
32633;SDS011;19043;51.012;5.648;2022-12-18T04:53:53;25.90;;;16.05;;
32633;SDS011;19043;51.012;5.648;2022-12-18T04:56:18;26.50;;;16.58;;
32633;SDS011;19043;51.012;5.648;2022-12-18T04:58:44;26.88;;;15.73;;
32633;SDS011;19043;51.012;5.648;2022-12-18T05:01:09;29.88;;;16.15;;
32633;SDS011;19043;51.012;5.648;2022-12-18T05:03:35;25.52;;;15.40;;
32633;SDS011;19043;51.012;5.648;2022-12-18T05:06:00;25.10;;;15.52;;
32633;SDS011;19043;51.012;5.648;2022-12-18T05:08:26;22.15;;;15.30;;
32633;SDS011;19043;51.012;5.648;2022-12-18T05:11:25;26.83;;;15.45;;
32633;SDS011;19043;51.012;5.648;2022-12-18T05:13:43;24.35;;;16.17;;
32633;SDS011;19043;51.012;5.648;2022-12-18T05:16:09;26.83;;;16.20;;
32633;SDS011;19043;51.012;5.648;2022-12-18T05:18:35;27.45;;;15.75;;
32633;SDS011;19043;51.012;5.648;2022-12-18T05:21:00;26.98;;;16.40;;
32633;SDS011;19043;51.012;5.648;2022-12-18T05:23:25;26.40;;;15.45;;
32633;SDS011;19043;51.012;5.648;2022-12-18T05:25:55;29.20;;;16.75;;
32633;SDS011;19043;51.012;5.648;2022-12-18T05:28:21;27.65;;;16.25;;
32633;SDS011;19043;51.012;5.648;2022-12-18T05:30:50;25.75;;;16.67;;
32633;SDS011;19043;51.012;5.648;2022-12-18T05:33:16;24.60;;;15.45;;
32633;SDS011;19043;51.012;5.648;2022-12-18T05:35:41;36.15;;;17.20;;
32633;SDS011;19043;51.012;5.648;2022-12-18T05:38:06;25.30;;;16.70;;
32633;SDS011;19043;51.012;5.648;2022-12-18T05:40:31;26.02;;;16.45;;
32633;SDS011;19043;51.012;5.648;2022-12-18T05:42:57;25.33;;;17.10;;
32633;SDS011;19043;51.012;5.648;2022-12-18T05:45:22;24.98;;;14.40;;
32633;SDS011;19043;51.012;5.648;2022-12-18T05:47:47;23.48;;;16.02;;
32633;SDS011;19043;51.012;5.648;2022-12-18T05:50:13;27.55;;;16.88;;
32633;SDS011;19043;51.012;5.648;2022-12-18T05:52:38;30.98;;;16.02;;
32633;SDS011;19043;51.012;5.648;2022-12-18T05:55:03;24.27;;;15.30;;
32633;SDS011;19043;51.012;5.648;2022-12-18T05:57:29;26.45;;;16.05;;
32633;SDS011;19043;51.012;5.648;2022-12-18T05:59:55;25.33;;;16.35;;
32633;SDS011;19043;51.012;5.648;2022-12-18T06:02:20;26.00;;;16.02;;
32633;SDS011;19043;51.012;5.648;2022-12-18T06:04:46;26.25;;;16.08;;
32633;SDS011;19043;51.012;5.648;2022-12-18T06:07:11;28.63;;;17.63;;
32633;SDS011;19043;51.012;5.648;2022-12-18T06:09:36;23.88;;;16.08;;
32633;SDS011;19043;51.012;5.648;2022-12-18T06:12:01;30.38;;;16.98;;
32633;SDS011;19043;51.012;5.648;2022-12-18T06:14:27;24.45;;;16.58;;
32633;SDS011;19043;51.012;5.648;2022-12-18T06:16:52;33.80;;;17.85;;
32633;SDS011;19043;51.012;5.648;2022-12-18T06:19:17;28.02;;;16.90;;
32633;SDS011;19043;51.012;5.648;2022-12-18T06:21:43;29.55;;;16.83;;
32633;SDS011;19043;51.012;5.648;2022-12-18T06:24:08;27.52;;;16.88;;
32633;SDS011;19043;51.012;5.648;2022-12-18T06:26:33;30.02;;;17.23;;
32633;SDS011;19043;51.012;5.648;2022-12-18T06:28:58;25.77;;;16.67;;
32633;SDS011;19043;51.012;5.648;2022-12-18T06:31:24;32.90;;;17.40;;
32633;SDS011;19043;51.012;5.648;2022-12-18T06:33:49;29.98;;;17.65;;
32633;SDS011;19043;51.012;5.648;2022-12-18T06:36:15;27.80;;;17.55;;
32633;SDS011;19043;51.012;5.648;2022-12-18T06:38:42;30.38;;;18.90;;
32633;SDS011;19043;51.012;5.648;2022-12-18T06:41:11;29.02;;;19.08;;
32633;SDS011;19043;51.012;5.648;2022-12-18T06:43:36;28.95;;;17.63;;
32633;SDS011;19043;51.012;5.648;2022-12-18T06:46:02;30.48;;;17.88;;
32633;SDS011;19043;51.012;5.648;2022-12-18T06:48:27;31.48;;;19.25;;
32633;SDS011;19043;51.012;5.648;2022-12-18T06:50:52;32.25;;;18.15;;
32633;SDS011;19043;51.012;5.648;2022-12-18T06:53:18;36.60;;;18.45;;
32633;SDS011;19043;51.012;5.648;2022-12-18T06:55:43;26.40;;;17.60;;
32633;SDS011;19043;51.012;5.648;2022-12-18T06:58:08;24.65;;;16.83;;
32633;SDS011;19043;51.012;5.648;2022-12-18T07:00:34;26.25;;;17.17;;
32633;SDS011;19043;51.012;5.648;2022-12-18T07:02:59;28.20;;;17.95;;
32633;SDS011;19043;51.012;5.648;2022-12-18T07:05:24;25.40;;;17.92;;
32633;SDS011;19043;51.012;5.648;2022-12-18T07:07:49;25.00;;;16.80;;
32633;SDS011;19043;51.012;5.648;2022-12-18T07:10:15;30.25;;;17.90;;
32633;SDS011;19043;51.012;5.648;2022-12-18T07:12:40;27.58;;;17.95;;
32633;SDS011;19043;51.012;5.648;2022-12-18T07:15:06;30.35;;;18.58;;
32633;SDS011;19043;51.012;5.648;2022-12-18T07:17:31;29.35;;;18.13;;
32633;SDS011;19043;51.012;5.648;2022-12-18T07:19:57;27.27;;;18.52;;
32633;SDS011;19043;51.012;5.648;2022-12-18T07:22:22;25.75;;;17.35;;
32633;SDS011;19043;51.012;5.648;2022-12-18T07:24:47;25.15;;;18.13;;
32633;SDS011;19043;51.012;5.648;2022-12-18T07:27:13;32.78;;;19.40;;
32633;SDS011;19043;51.012;5.648;2022-12-18T07:29:38;31.23;;;18.42;;
32633;SDS011;19043;51.012;5.648;2022-12-18T07:32:03;33.47;;;22.10;;
32633;SDS011;19043;51.012;5.648;2022-12-18T07:34:28;35.55;;;20.70;;
32633;SDS011;19043;51.012;5.648;2022-12-18T07:36:54;34.50;;;20.15;;
32633;SDS011;19043;51.012;5.648;2022-12-18T07:39:19;28.73;;;19.70;;
32633;SDS011;19043;51.012;5.648;2022-12-18T07:41:44;30.73;;;20.60;;
32633;SDS011;19043;51.012;5.648;2022-12-18T07:44:30;27.35;;;19.23;;
32633;SDS011;19043;51.012;5.648;2022-12-18T07:46:55;30.80;;;19.00;;
32633;SDS011;19043;51.012;5.648;2022-12-18T07:49:20;39.13;;;20.98;;
32633;SDS011;19043;51.012;5.648;2022-12-18T07:51:45;32.03;;;20.92;;
32633;SDS011;19043;51.012;5.648;2022-12-18T07:54:14;27.48;;;19.52;;
32633;SDS011;19043;51.012;5.648;2022-12-18T07:56:39;33.22;;;21.00;;
32633;SDS011;19043;51.012;5.648;2022-12-18T07:59:04;30.98;;;20.77;;
32633;SDS011;19043;51.012;5.648;2022-12-18T08:01:29;32.03;;;19.60;;
32633;SDS011;19043;51.012;5.648;2022-12-18T08:03:55;33.47;;;20.73;;
32633;SDS011;19043;51.012;5.648;2022-12-18T08:06:20;39.25;;;19.77;;
32633;SDS011;19043;51.012;5.648;2022-12-18T08:08:45;34.03;;;21.30;;
32633;SDS011;19043;51.012;5.648;2022-12-18T08:11:10;34.60;;;20.98;;
32633;SDS011;19043;51.012;5.648;2022-12-18T08:13:36;33.63;;;22.33;;
32633;SDS011;19043;51.012;5.648;2022-12-18T08:16:02;34.30;;;21.55;;
32633;SDS011;19043;51.012;5.648;2022-12-18T08:18:28;32.28;;;21.80;;
32633;SDS011;19043;51.012;5.648;2022-12-18T08:20:53;30.45;;;19.00;;
32633;SDS011;19043;51.012;5.648;2022-12-18T08:23:19;30.33;;;19.85;;
32633;SDS011;19043;51.012;5.648;2022-12-18T08:25:44;38.10;;;21.58;;
32633;SDS011;19043;51.012;5.648;2022-12-18T08:28:10;34.15;;;20.45;;
32633;SDS011;19043;51.012;5.648;2022-12-18T08:30:35;38.22;;;22.25;;
32633;SDS011;19043;51.012;5.648;2022-12-18T08:33:00;37.72;;;22.30;;
32633;SDS011;19043;51.012;5.648;2022-12-18T08:35:28;36.65;;;22.50;;
32633;SDS011;19043;51.012;5.648;2022-12-18T08:37:53;35.90;;;21.27;;
32633;SDS011;19043;51.012;5.648;2022-12-18T08:40:19;32.45;;;20.85;;
32633;SDS011;19043;51.012;5.648;2022-12-18T08:42:47;34.17;;;20.85;;
32633;SDS011;19043;51.012;5.648;2022-12-18T08:45:38;38.78;;;22.60;;
32633;SDS011;19043;51.012;5.648;2022-12-18T08:48:04;33.95;;;22.20;;
32633;SDS011;19043;51.012;5.648;2022-12-18T08:50:29;35.03;;;22.08;;
32633;SDS011;19043;51.012;5.648;2022-12-18T08:52:54;35.83;;;23.58;;
32633;SDS011;19043;51.012;5.648;2022-12-18T08:55:19;36.20;;;22.58;;
32633;SDS011;19043;51.012;5.648;2022-12-18T08:57:47;32.05;;;21.27;;
32633;SDS011;19043;51.012;5.648;2022-12-18T09:00:13;32.60;;;22.50;;
32633;SDS011;19043;51.012;5.648;2022-12-18T09:02:38;35.65;;;22.30;;
32633;SDS011;19043;51.012;5.648;2022-12-18T09:05:04;36.83;;;22.63;;
32633;SDS011;19043;51.012;5.648;2022-12-18T09:07:29;37.67;;;23.15;;
32633;SDS011;19043;51.012;5.648;2022-12-18T09:09:54;33.80;;;21.58;;
32633;SDS011;19043;51.012;5.648;2022-12-18T09:12:20;40.63;;;26.13;;
32633;SDS011;19043;51.012;5.648;2022-12-18T09:14:46;38.10;;;26.23;;
32633;SDS011;19043;51.012;5.648;2022-12-18T09:17:11;40.28;;;26.98;;
32633;SDS011;19043;51.012;5.648;2022-12-18T09:19:36;42.75;;;27.55;;
32633;SDS011;19043;51.012;5.648;2022-12-18T09:22:01;34.90;;;25.08;;
32633;SDS011;19043;51.012;5.648;2022-12-18T09:24:27;50.65;;;33.92;;
32633;SDS011;19043;51.012;5.648;2022-12-18T09:26:53;39.60;;;24.52;;
32633;SDS011;19043;51.012;5.648;2022-12-18T09:29:19;39.90;;;23.73;;
32633;SDS011;19043;51.012;5.648;2022-12-18T09:31:44;44.42;;;29.08;;
32633;SDS011;19043;51.012;5.648;2022-12-18T09:34:10;40.92;;;26.42;;
32633;SDS011;19043;51.012;5.648;2022-12-18T09:36:35;36.80;;;24.73;;
32633;SDS011;19043;51.012;5.648;2022-12-18T09:39:00;35.38;;;24.08;;
32633;SDS011;19043;51.012;5.648;2022-12-18T09:43:52;35.55;;;23.95;;
32633;SDS011;19043;51.012;5.648;2022-12-18T09:46:20;40.45;;;23.80;;
32633;SDS011;19043;51.012;5.648;2022-12-18T09:48:48;35.25;;;23.48;;
32633;SDS011;19043;51.012;5.648;2022-12-18T09:51:15;34.70;;;23.38;;
32633;SDS011;19043;51.012;5.648;2022-12-18T09:53:43;39.22;;;23.88;;
32633;SDS011;19043;51.012;5.648;2022-12-18T09:56:12;36.28;;;22.77;;
32633;SDS011;19043;51.012;5.648;2022-12-18T09:58:45;37.67;;;23.25;;
32633;SDS011;19043;51.012;5.648;2022-12-18T10:01:18;36.33;;;22.65;;
32633;SDS011;19043;51.012;5.648;2022-12-18T10:03:44;34.72;;;23.30;;
32633;SDS011;19043;51.012;5.648;2022-12-18T10:09:40;37.63;;;23.13;;
32633;SDS011;19043;51.012;5.648;2022-12-18T10:16:54;35.25;;;22.85;;
32633;SDS011;19043;51.012;5.648;2022-12-18T10:21:57;38.63;;;25.08;;
32633;SDS011;19043;51.012;5.648;2022-12-18T10:27:16;35.40;;;24.70;;
32633;SDS011;19043;51.012;5.648;2022-12-18T10:29:45;33.85;;;23.83;;
32633;SDS011;19043;51.012;5.648;2022-12-18T10:32:18;41.05;;;24.90;;
32633;SDS011;19043;51.012;5.648;2022-12-18T10:34:46;34.30;;;24.05;;
32633;SDS011;19043;51.012;5.648;2022-12-18T10:37:16;36.63;;;24.02;;
32633;SDS011;19043;51.012;5.648;2022-12-18T10:39:42;32.72;;;23.20;;
32633;SDS011;19043;51.012;5.648;2022-12-18T10:42:14;37.92;;;25.52;;
32633;SDS011;19043;51.012;5.648;2022-12-18T10:47:11;32.38;;;23.02;;
32633;SDS011;19043;51.012;5.648;2022-12-18T10:49:36;36.67;;;23.63;;
32633;SDS011;19043;51.012;5.648;2022-12-18T10:52:20;37.35;;;25.30;;
32633;SDS011;19043;51.012;5.648;2022-12-18T10:54:51;32.42;;;22.77;;
32633;SDS011;19043;51.012;5.648;2022-12-18T10:57:19;38.78;;;26.80;;
32633;SDS011;19043;51.012;5.648;2022-12-18T10:59:53;31.00;;;21.73;;
32633;SDS011;19043;51.012;5.648;2022-12-18T11:07:19;38.10;;;24.40;;
32633;SDS011;19043;51.012;5.648;2022-12-18T11:09:44;35.40;;;22.80;;
32633;SDS011;19043;51.012;5.648;2022-12-18T11:12:24;36.40;;;22.98;;
32633;SDS011;19043;51.012;5.648;2022-12-18T11:14:50;33.70;;;21.33;;
32633;SDS011;19043;51.012;5.648;2022-12-18T11:19:55;33.83;;;22.90;;
32633;SDS011;19043;51.012;5.648;2022-12-18T11:22:25;34.80;;;23.10;;
32633;SDS011;19043;51.012;5.648;2022-12-18T11:27:48;34.30;;;21.15;;
32633;SDS011;19043;51.012;5.648;2022-12-18T11:30:21;33.83;;;21.63;;
32633;SDS011;19043;51.012;5.648;2022-12-18T11:32:54;30.08;;;21.25;;
32633;SDS011;19043;51.012;5.648;2022-12-18T11:35:32;31.38;;;21.23;;
32633;SDS011;19043;51.012;5.648;2022-12-18T11:38:02;33.03;;;23.02;;
32633;SDS011;19043;51.012;5.648;2022-12-18T11:40:31;33.72;;;23.15;;
32633;SDS011;19043;51.012;5.648;2022-12-18T11:42:59;35.33;;;21.45;;
32633;SDS011;19043;51.012;5.648;2022-12-18T11:45:28;31.10;;;20.35;;
32633;SDS011;19043;51.012;5.648;2022-12-18T11:50:51;38.75;;;22.33;;
32633;SDS011;19043;51.012;5.648;2022-12-18T11:53:17;42.35;;;24.83;;
32633;SDS011;19043;51.012;5.648;2022-12-18T11:58:20;51.40;;;33.55;;
32633;SDS011;19043;51.012;5.648;2022-12-18T12:00:55;40.45;;;27.00;;
32633;SDS011;19043;51.012;5.648;2022-12-18T12:11:21;35.97;;;26.38;;
32633;SDS011;19043;51.012;5.648;2022-12-18T12:19:35;33.90;;;21.02;;
32633;SDS011;19043;51.012;5.648;2022-12-18T12:22:04;29.55;;;22.58;;
32633;SDS011;19043;51.012;5.648;2022-12-18T12:24:43;29.80;;;21.27;;
32633;SDS011;19043;51.012;5.648;2022-12-18T12:39:38;29.48;;;20.80;;
32633;SDS011;19043;51.012;5.648;2022-12-18T12:42:05;30.23;;;23.10;;
32633;SDS011;19043;51.012;5.648;2022-12-18T12:44:54;32.78;;;22.02;;
32633;SDS011;19043;51.012;5.648;2022-12-18T12:47:22;30.33;;;21.38;;
32633;SDS011;19043;51.012;5.648;2022-12-18T12:49:50;29.40;;;22.17;;
32633;SDS011;19043;51.012;5.648;2022-12-18T12:52:28;34.67;;;23.77;;
32633;SDS011;19043;51.012;5.648;2022-12-18T12:54:55;42.10;;;22.73;;
32633;SDS011;19043;51.012;5.648;2022-12-18T12:57:23;33.13;;;22.13;;
32633;SDS011;19043;51.012;5.648;2022-12-18T12:59:57;30.45;;;21.95;;
32633;SDS011;19043;51.012;5.648;2022-12-18T13:02:29;30.25;;;21.20;;
32633;SDS011;19043;51.012;5.648;2022-12-18T13:07:35;39.58;;;26.35;;
32633;SDS011;19043;51.012;5.648;2022-12-18T13:20:32;38.75;;;25.70;;
32633;SDS011;19043;51.012;5.648;2022-12-18T13:22:57;38.72;;;26.20;;
32633;SDS011;19043;51.012;5.648;2022-12-18T13:25:26;72.40;;;50.47;;
32633;SDS011;19043;51.012;5.648;2022-12-18T13:27:57;36.08;;;23.50;;
32633;SDS011;19043;51.012;5.648;2022-12-18T13:35:39;29.08;;;21.25;;
32633;SDS011;19043;51.012;5.648;2022-12-18T13:48:21;30.35;;;21.70;;
32633;SDS011;19043;51.012;5.648;2022-12-18T13:51:06;28.98;;;20.42;;
32633;SDS011;19043;51.012;5.648;2022-12-18T13:53:53;43.13;;;20.40;;
32633;SDS011;19043;51.012;5.648;2022-12-18T13:56:17;32.17;;;22.85;;
32633;SDS011;19043;51.012;5.648;2022-12-18T13:58:44;34.90;;;22.02;;
32633;SDS011;19043;51.012;5.648;2022-12-18T14:01:21;37.45;;;21.90;;
32633;SDS011;19043;51.012;5.648;2022-12-18T14:03:46;30.55;;;20.98;;
32633;SDS011;19043;51.012;5.648;2022-12-18T14:06:11;34.40;;;22.15;;
32633;SDS011;19043;51.012;5.648;2022-12-18T14:08:38;27.92;;;20.80;;
32633;SDS011;19043;51.012;5.648;2022-12-18T14:11:04;30.35;;;21.08;;
32633;SDS011;19043;51.012;5.648;2022-12-18T14:13:35;34.10;;;23.50;;
32633;SDS011;19043;51.012;5.648;2022-12-18T14:16:05;28.00;;;20.88;;
32633;SDS011;19043;51.012;5.648;2022-12-18T14:18:45;33.83;;;22.42;;
32633;SDS011;19043;51.012;5.648;2022-12-18T14:21:24;29.77;;;21.30;;
32633;SDS011;19043;51.012;5.648;2022-12-18T14:26:34;27.50;;;20.55;;
32633;SDS011;19043;51.012;5.648;2022-12-18T14:29:01;29.55;;;21.17;;
32633;SDS011;19043;51.012;5.648;2022-12-18T14:31:27;35.40;;;22.17;;
32633;SDS011;19043;51.012;5.648;2022-12-18T14:33:53;30.25;;;20.05;;
32633;SDS011;19043;51.012;5.648;2022-12-18T14:36:28;31.23;;;21.20;;
32633;SDS011;19043;51.012;5.648;2022-12-18T14:38:54;34.15;;;20.92;;
32633;SDS011;19043;51.012;5.648;2022-12-18T14:41:20;34.97;;;21.55;;
32633;SDS011;19043;51.012;5.648;2022-12-18T14:43:49;29.88;;;21.65;;
32633;SDS011;19043;51.012;5.648;2022-12-18T14:48:59;27.90;;;20.40;;
32633;SDS011;19043;51.012;5.648;2022-12-18T14:51:26;40.08;;;25.08;;
32633;SDS011;19043;51.012;5.648;2022-12-18T14:56:19;37.83;;;26.63;;
32633;SDS011;19043;51.012;5.648;2022-12-18T14:58:49;46.42;;;29.90;;
32633;SDS011;19043;51.012;5.648;2022-12-18T15:01:58;37.75;;;25.17;;
32633;SDS011;19043;51.012;5.648;2022-12-18T15:04:04;37.28;;;25.60;;
32633;SDS011;19043;51.012;5.648;2022-12-18T15:06:34;38.28;;;24.48;;
32633;SDS011;19043;51.012;5.648;2022-12-18T15:09:00;36.83;;;24.60;;
32633;SDS011;19043;51.012;5.648;2022-12-18T15:14:22;35.50;;;25.88;;
32633;SDS011;19043;51.012;5.648;2022-12-18T15:16:52;36.17;;;24.00;;
32633;SDS011;19043;51.012;5.648;2022-12-18T15:19:18;39.08;;;25.30;;
32633;SDS011;19043;51.012;5.648;2022-12-18T15:21:43;35.97;;;24.88;;
32633;SDS011;19043;51.012;5.648;2022-12-18T15:24:16;36.03;;;26.17;;
32633;SDS011;19043;51.012;5.648;2022-12-18T15:26:42;36.38;;;26.25;;
32633;SDS011;19043;51.012;5.648;2022-12-18T15:29:15;34.65;;;25.15;;
32633;SDS011;19043;51.012;5.648;2022-12-18T15:31:42;35.13;;;23.20;;
32633;SDS011;19043;51.012;5.648;2022-12-18T15:36:32;34.75;;;24.63;;
32633;SDS011;19043;51.012;5.648;2022-12-18T15:39:01;33.50;;;24.40;;
32633;SDS011;19043;51.012;5.648;2022-12-18T15:41:26;38.10;;;27.45;;
32633;SDS011;19043;51.012;5.648;2022-12-18T15:43:52;36.15;;;25.13;;
32633;SDS011;19043;51.012;5.648;2022-12-18T15:46:19;41.15;;;25.63;;
32633;SDS011;19043;51.012;5.648;2022-12-18T15:48:46;36.20;;;24.67;;
32633;SDS011;19043;51.012;5.648;2022-12-18T15:51:13;33.92;;;25.27;;
32633;SDS011;19043;51.012;5.648;2022-12-18T15:53:39;33.60;;;23.98;;
32633;SDS011;19043;51.012;5.648;2022-12-18T15:56:04;40.45;;;26.00;;
32633;SDS011;19043;51.012;5.648;2022-12-18T15:58:48;36.05;;;24.65;;
32633;SDS011;19043;51.012;5.648;2022-12-18T16:01:14;37.25;;;24.65;;
32633;SDS011;19043;51.012;5.648;2022-12-18T16:03:42;38.28;;;25.73;;
32633;SDS011;19043;51.012;5.648;2022-12-18T16:06:08;34.22;;;25.15;;
32633;SDS011;19043;51.012;5.648;2022-12-18T16:08:33;40.83;;;26.40;;
32633;SDS011;19043;51.012;5.648;2022-12-18T16:11:00;40.50;;;27.55;;
32633;SDS011;19043;51.012;5.648;2022-12-18T16:13:25;38.80;;;25.83;;
32633;SDS011;19043;51.012;5.648;2022-12-18T16:15:50;40.72;;;26.85;;
32633;SDS011;19043;51.012;5.648;2022-12-18T16:18:15;35.88;;;25.80;;
32633;SDS011;19043;51.012;5.648;2022-12-18T16:20:41;38.15;;;26.58;;
32633;SDS011;19043;51.012;5.648;2022-12-18T16:23:06;38.42;;;25.25;;
32633;SDS011;19043;51.012;5.648;2022-12-18T16:25:31;38.97;;;23.88;;
32633;SDS011;19043;51.012;5.648;2022-12-18T16:27:57;40.38;;;26.13;;